sensor_id;sensor_type;location;lat;lon;timestamp;P1;durP1;ratioP1;P2;durP2;ratioP2
13279;SDS011;6708;49.814;8.652;2023-05-02T00:02:14;3.33;;;3.13;;
13279;SDS011;6708;49.814;8.652;2023-05-02T00:04:43;3.10;;;3.00;;
13279;SDS011;6708;49.814;8.652;2023-05-02T00:07:11;3.00;;;2.90;;
13279;SDS011;6708;49.814;8.652;2023-05-02T00:09:39;3.43;;;3.23;;
13279;SDS011;6708;49.814;8.652;2023-05-02T00:12:08;3.27;;;2.97;;
13279;SDS011;6708;49.814;8.652;2023-05-02T00:14:36;3.20;;;3.00;;
13279;SDS011;6708;49.814;8.652;2023-05-02T00:17:07;3.10;;;2.90;;
13279;SDS011;6708;49.814;8.652;2023-05-02T00:19:36;2.57;;;2.43;;
13279;SDS011;6708;49.814;8.652;2023-05-02T00:22:05;2.60;;;2.40;;
13279;SDS011;6708;49.814;8.652;2023-05-02T00:24:33;2.57;;;2.47;;
13279;SDS011;6708;49.814;8.652;2023-05-02T00:27:02;2.50;;;2.40;;
13279;SDS011;6708;49.814;8.652;2023-05-02T00:29:31;2.90;;;2.80;;
13279;SDS011;6708;49.814;8.652;2023-05-02T00:31:59;4.83;;;2.60;;
13279;SDS011;6708;49.814;8.652;2023-05-02T00:34:31;2.60;;;2.50;;
13279;SDS011;6708;49.814;8.652;2023-05-02T00:36:59;3.07;;;2.90;;
13279;SDS011;6708;49.814;8.652;2023-05-02T00:39:28;3.20;;;3.00;;
13279;SDS011;6708;49.814;8.652;2023-05-02T00:41:56;4.33;;;2.70;;
13279;SDS011;6708;49.814;8.652;2023-05-02T00:44:25;6.90;;;3.30;;
13279;SDS011;6708;49.814;8.652;2023-05-02T00:46:53;2.97;;;2.87;;
13279;SDS011;6708;49.814;8.652;2023-05-02T00:49:22;2.60;;;2.50;;
13279;SDS011;6708;49.814;8.652;2023-05-02T00:51:54;2.50;;;2.40;;
13279;SDS011;6708;49.814;8.652;2023-05-02T00:54:22;2.50;;;2.40;;
13279;SDS011;6708;49.814;8.652;2023-05-02T00:56:51;3.17;;;2.97;;
13279;SDS011;6708;49.814;8.652;2023-05-02T00:59:19;2.57;;;2.47;;
13279;SDS011;6708;49.814;8.652;2023-05-02T01:01:51;2.43;;;2.33;;
13279;SDS011;6708;49.814;8.652;2023-05-02T01:07:17;2.57;;;2.47;;
13279;SDS011;6708;49.814;8.652;2023-05-02T01:09:56;2.43;;;2.33;;
13279;SDS011;6708;49.814;8.652;2023-05-02T01:12:30;2.70;;;2.50;;
13279;SDS011;6708;49.814;8.652;2023-05-02T01:15:04;2.30;;;2.20;;
13279;SDS011;6708;49.814;8.652;2023-05-02T01:17:34;2.50;;;2.40;;
13279;SDS011;6708;49.814;8.652;2023-05-02T01:20:05;2.43;;;2.37;;
13279;SDS011;6708;49.814;8.652;2023-05-02T01:22:38;2.70;;;2.60;;
13279;SDS011;6708;49.814;8.652;2023-05-02T01:25:13;2.40;;;2.40;;
13279;SDS011;6708;49.814;8.652;2023-05-02T01:27:50;2.20;;;2.10;;
13279;SDS011;6708;49.814;8.652;2023-05-02T01:30:27;2.80;;;2.70;;
13279;SDS011;6708;49.814;8.652;2023-05-02T01:32:57;2.37;;;2.27;;
13279;SDS011;6708;49.814;8.652;2023-05-02T01:35:27;2.67;;;2.57;;
13279;SDS011;6708;49.814;8.652;2023-05-02T01:37:56;2.33;;;2.23;;
13279;SDS011;6708;49.814;8.652;2023-05-02T01:40:26;3.80;;;2.53;;
13279;SDS011;6708;49.814;8.652;2023-05-02T01:42:55;2.20;;;2.10;;
13279;SDS011;6708;49.814;8.652;2023-05-02T01:45:30;2.80;;;2.70;;
13279;SDS011;6708;49.814;8.652;2023-05-02T01:48:02;2.63;;;2.43;;
13279;SDS011;6708;49.814;8.652;2023-05-02T01:50:32;2.60;;;2.50;;
13279;SDS011;6708;49.814;8.652;2023-05-02T01:53:01;2.77;;;2.67;;
13279;SDS011;6708;49.814;8.652;2023-05-02T01:55:31;2.97;;;2.80;;
13279;SDS011;6708;49.814;8.652;2023-05-02T01:58:02;2.90;;;2.80;;
13279;SDS011;6708;49.814;8.652;2023-05-02T02:00:34;3.07;;;2.97;;
13279;SDS011;6708;49.814;8.652;2023-05-02T02:03:04;2.77;;;2.67;;
13279;SDS011;6708;49.814;8.652;2023-05-02T02:05:33;2.53;;;2.43;;
13279;SDS011;6708;49.814;8.652;2023-05-02T02:08:02;2.50;;;2.40;;
13279;SDS011;6708;49.814;8.652;2023-05-02T02:10:34;2.27;;;2.23;;
13279;SDS011;6708;49.814;8.652;2023-05-02T02:13:05;2.90;;;2.80;;
13279;SDS011;6708;49.814;8.652;2023-05-02T02:15:42;3.33;;;3.13;;
13279;SDS011;6708;49.814;8.652;2023-05-02T02:18:12;4.70;;;3.40;;
13279;SDS011;6708;49.814;8.652;2023-05-02T02:20:42;3.17;;;3.03;;
13279;SDS011;6708;49.814;8.652;2023-05-02T02:23:11;3.50;;;3.37;;
13279;SDS011;6708;49.814;8.652;2023-05-02T02:25:40;3.77;;;3.57;;
13279;SDS011;6708;49.814;8.652;2023-05-02T02:28:09;3.17;;;3.07;;
13279;SDS011;6708;49.814;8.652;2023-05-02T02:30:37;3.43;;;3.33;;
13279;SDS011;6708;49.814;8.652;2023-05-02T02:33:08;3.60;;;2.90;;
13279;SDS011;6708;49.814;8.652;2023-05-02T02:35:37;3.33;;;2.80;;
13279;SDS011;6708;49.814;8.652;2023-05-02T02:38:10;3.10;;;3.00;;
13279;SDS011;6708;49.814;8.652;2023-05-02T02:40:43;3.33;;;3.10;;
13279;SDS011;6708;49.814;8.652;2023-05-02T02:43:18;3.50;;;3.20;;
13279;SDS011;6708;49.814;8.652;2023-05-02T02:45:51;3.53;;;3.33;;
13279;SDS011;6708;49.814;8.652;2023-05-02T02:48:29;3.83;;;3.63;;
13279;SDS011;6708;49.814;8.652;2023-05-02T02:51:02;4.43;;;4.13;;
13279;SDS011;6708;49.814;8.652;2023-05-02T02:53:40;4.20;;;4.00;;
13279;SDS011;6708;49.814;8.652;2023-05-02T02:56:14;4.00;;;3.77;;
13279;SDS011;6708;49.814;8.652;2023-05-02T02:58:45;4.50;;;4.10;;
13279;SDS011;6708;49.814;8.652;2023-05-02T03:01:16;3.90;;;3.70;;
13279;SDS011;6708;49.814;8.652;2023-05-02T03:03:49;3.53;;;3.23;;
13279;SDS011;6708;49.814;8.652;2023-05-02T03:06:18;3.80;;;3.60;;
13279;SDS011;6708;49.814;8.652;2023-05-02T03:08:49;3.40;;;3.30;;
13279;SDS011;6708;49.814;8.652;2023-05-02T03:11:24;3.13;;;3.03;;
13279;SDS011;6708;49.814;8.652;2023-05-02T03:13:52;4.00;;;3.80;;
13279;SDS011;6708;49.814;8.652;2023-05-02T03:16:32;4.20;;;3.97;;
13279;SDS011;6708;49.814;8.652;2023-05-02T03:19:06;4.63;;;4.33;;
13279;SDS011;6708;49.814;8.652;2023-05-02T03:21:36;5.43;;;4.37;;
13279;SDS011;6708;49.814;8.652;2023-05-02T03:24:10;4.40;;;4.10;;
13279;SDS011;6708;49.814;8.652;2023-05-02T03:26:39;4.57;;;4.27;;
13279;SDS011;6708;49.814;8.652;2023-05-02T03:29:10;4.20;;;4.00;;
13279;SDS011;6708;49.814;8.652;2023-05-02T03:31:40;4.60;;;4.30;;
13279;SDS011;6708;49.814;8.652;2023-05-02T03:34:11;4.63;;;4.43;;
13279;SDS011;6708;49.814;8.652;2023-05-02T03:36:41;4.40;;;4.20;;
13279;SDS011;6708;49.814;8.652;2023-05-02T03:39:10;4.20;;;4.00;;
13279;SDS011;6708;49.814;8.652;2023-05-02T03:41:39;5.10;;;4.80;;
13279;SDS011;6708;49.814;8.652;2023-05-02T03:44:11;4.97;;;4.67;;
13279;SDS011;6708;49.814;8.652;2023-05-02T03:46:40;5.47;;;5.13;;
13279;SDS011;6708;49.814;8.652;2023-05-02T03:49:13;6.07;;;5.77;;
13279;SDS011;6708;49.814;8.652;2023-05-02T03:51:44;6.77;;;6.20;;
13279;SDS011;6708;49.814;8.652;2023-05-02T03:54:18;4.57;;;4.37;;
13279;SDS011;6708;49.814;8.652;2023-05-02T03:56:47;5.27;;;4.80;;
13279;SDS011;6708;49.814;8.652;2023-05-02T03:59:23;4.90;;;4.70;;
13279;SDS011;6708;49.814;8.652;2023-05-02T04:01:53;5.17;;;4.77;;
13279;SDS011;6708;49.814;8.652;2023-05-02T04:04:31;4.97;;;4.67;;
13279;SDS011;6708;49.814;8.652;2023-05-02T04:07:00;6.20;;;5.80;;
13279;SDS011;6708;49.814;8.652;2023-05-02T04:09:29;5.80;;;5.50;;
13279;SDS011;6708;49.814;8.652;2023-05-02T04:12:04;6.33;;;5.97;;
13279;SDS011;6708;49.814;8.652;2023-05-02T04:14:36;6.03;;;5.73;;
13279;SDS011;6708;49.814;8.652;2023-05-02T04:17:04;6.97;;;6.57;;
13279;SDS011;6708;49.814;8.652;2023-05-02T04:19:41;7.77;;;7.17;;
13279;SDS011;6708;49.814;8.652;2023-05-02T04:22:10;8.50;;;7.90;;
13279;SDS011;6708;49.814;8.652;2023-05-02T04:24:44;7.33;;;6.73;;
13279;SDS011;6708;49.814;8.652;2023-05-02T04:27:13;6.57;;;6.13;;
13279;SDS011;6708;49.814;8.652;2023-05-02T04:29:42;6.60;;;6.20;;
13279;SDS011;6708;49.814;8.652;2023-05-02T04:32:11;6.23;;;5.93;;
13279;SDS011;6708;49.814;8.652;2023-05-02T04:34:42;6.00;;;5.70;;
13279;SDS011;6708;49.814;8.652;2023-05-02T04:37:10;7.10;;;6.60;;
13279;SDS011;6708;49.814;8.652;2023-05-02T04:39:41;6.27;;;5.87;;
13279;SDS011;6708;49.814;8.652;2023-05-02T04:42:16;7.00;;;6.57;;
13279;SDS011;6708;49.814;8.652;2023-05-02T04:44:58;6.73;;;6.33;;
13279;SDS011;6708;49.814;8.652;2023-05-02T04:47:27;7.93;;;7.33;;
13279;SDS011;6708;49.814;8.652;2023-05-02T04:49:58;7.80;;;7.20;;
13279;SDS011;6708;49.814;8.652;2023-05-02T04:52:27;8.17;;;7.27;;
13279;SDS011;6708;49.814;8.652;2023-05-02T04:54:55;6.67;;;6.27;;
13279;SDS011;6708;49.814;8.652;2023-05-02T04:57:24;6.07;;;5.73;;
13279;SDS011;6708;49.814;8.652;2023-05-02T04:59:56;7.50;;;6.90;;
13279;SDS011;6708;49.814;8.652;2023-05-02T05:02:25;6.40;;;5.90;;
13279;SDS011;6708;49.814;8.652;2023-05-02T05:04:58;7.53;;;7.07;;
13279;SDS011;6708;49.814;8.652;2023-05-02T05:07:28;9.23;;;8.53;;
13279;SDS011;6708;49.814;8.652;2023-05-02T05:09:57;9.33;;;8.53;;
13279;SDS011;6708;49.814;8.652;2023-05-02T05:12:29;10.03;;;9.07;;
13279;SDS011;6708;49.814;8.652;2023-05-02T05:14:58;13.20;;;12.10;;
13279;SDS011;6708;49.814;8.652;2023-05-02T05:17:27;12.93;;;11.93;;
13279;SDS011;6708;49.814;8.652;2023-05-02T05:19:58;19.43;;;13.73;;
13279;SDS011;6708;49.814;8.652;2023-05-02T05:22:27;13.37;;;12.17;;
13279;SDS011;6708;49.814;8.652;2023-05-02T05:24:56;15.13;;;13.83;;
13279;SDS011;6708;49.814;8.652;2023-05-02T05:27:28;20.53;;;18.57;;
13279;SDS011;6708;49.814;8.652;2023-05-02T05:29:57;21.67;;;19.63;;
13279;SDS011;6708;49.814;8.652;2023-05-02T05:32:25;22.27;;;19.83;;
13279;SDS011;6708;49.814;8.652;2023-05-02T05:34:54;22.17;;;20.10;;
13279;SDS011;6708;49.814;8.652;2023-05-02T05:37:27;21.87;;;19.87;;
13279;SDS011;6708;49.814;8.652;2023-05-02T05:39:58;22.73;;;20.57;;
13279;SDS011;6708;49.814;8.652;2023-05-02T05:42:26;20.87;;;18.97;;
13279;SDS011;6708;49.814;8.652;2023-05-02T05:44:59;20.73;;;18.63;;
13279;SDS011;6708;49.814;8.652;2023-05-02T05:47:27;19.43;;;17.67;;
13279;SDS011;6708;49.814;8.652;2023-05-02T05:49:56;21.27;;;19.17;;
13279;SDS011;6708;49.814;8.652;2023-05-02T05:52:30;20.40;;;18.70;;
13279;SDS011;6708;49.814;8.652;2023-05-02T05:55:00;20.93;;;19.20;;
13279;SDS011;6708;49.814;8.652;2023-05-02T05:57:29;21.10;;;19.00;;
13279;SDS011;6708;49.814;8.652;2023-05-02T05:59:57;20.50;;;18.43;;
13279;SDS011;6708;49.814;8.652;2023-05-02T06:02:26;20.30;;;18.33;;
13279;SDS011;6708;49.814;8.652;2023-05-02T06:04:55;19.23;;;17.57;;
13279;SDS011;6708;49.814;8.652;2023-05-02T06:07:24;19.13;;;17.23;;
13279;SDS011;6708;49.814;8.652;2023-05-02T06:09:55;18.83;;;17.07;;
13279;SDS011;6708;49.814;8.652;2023-05-02T06:12:23;18.53;;;16.87;;
13279;SDS011;6708;49.814;8.652;2023-05-02T06:14:52;18.33;;;16.67;;
13279;SDS011;6708;49.814;8.652;2023-05-02T06:17:21;18.90;;;17.00;;
13279;SDS011;6708;49.814;8.652;2023-05-02T06:19:50;20.00;;;18.07;;
13279;SDS011;6708;49.814;8.652;2023-05-02T06:22:19;19.17;;;17.40;;
13279;SDS011;6708;49.814;8.652;2023-05-02T06:24:48;18.57;;;16.87;;
13279;SDS011;6708;49.814;8.652;2023-05-02T06:27:19;18.47;;;16.77;;
13279;SDS011;6708;49.814;8.652;2023-05-02T06:29:49;19.53;;;17.73;;
13279;SDS011;6708;49.814;8.652;2023-05-02T06:32:18;19.17;;;17.47;;
13279;SDS011;6708;49.814;8.652;2023-05-02T06:34:46;18.20;;;16.63;;
13279;SDS011;6708;49.814;8.652;2023-05-02T06:37:14;18.90;;;17.10;;
13279;SDS011;6708;49.814;8.652;2023-05-02T06:39:43;19.87;;;17.87;;
13279;SDS011;6708;49.814;8.652;2023-05-02T06:42:11;19.77;;;17.90;;
13279;SDS011;6708;49.814;8.652;2023-05-02T06:44:42;20.17;;;17.97;;
13279;SDS011;6708;49.814;8.652;2023-05-02T06:47:11;20.77;;;18.87;;
13279;SDS011;6708;49.814;8.652;2023-05-02T06:49:39;20.23;;;18.33;;
13279;SDS011;6708;49.814;8.652;2023-05-02T06:52:08;18.70;;;17.00;;
13279;SDS011;6708;49.814;8.652;2023-05-02T06:54:36;20.43;;;18.37;;
13279;SDS011;6708;49.814;8.652;2023-05-02T06:57:06;20.20;;;18.17;;
13279;SDS011;6708;49.814;8.652;2023-05-02T06:59:35;21.23;;;19.17;;
13279;SDS011;6708;49.814;8.652;2023-05-02T07:02:06;20.60;;;18.70;;
13279;SDS011;6708;49.814;8.652;2023-05-02T07:04:35;19.97;;;17.87;;
13279;SDS011;6708;49.814;8.652;2023-05-02T07:07:03;20.43;;;18.33;;
13279;SDS011;6708;49.814;8.652;2023-05-02T07:09:32;24.07;;;18.40;;
13279;SDS011;6708;49.814;8.652;2023-05-02T07:12:00;19.23;;;17.43;;
13279;SDS011;6708;49.814;8.652;2023-05-02T07:14:29;19.97;;;17.87;;
13279;SDS011;6708;49.814;8.652;2023-05-02T07:16:57;21.47;;;18.37;;
13279;SDS011;6708;49.814;8.652;2023-05-02T07:19:28;19.67;;;17.77;;
13279;SDS011;6708;49.814;8.652;2023-05-02T07:21:57;20.20;;;18.30;;
13279;SDS011;6708;49.814;8.652;2023-05-02T07:24:25;21.63;;;19.50;;
13279;SDS011;6708;49.814;8.652;2023-05-02T07:26:54;22.07;;;19.77;;
13279;SDS011;6708;49.814;8.652;2023-05-02T07:29:22;26.30;;;21.53;;
13279;SDS011;6708;49.814;8.652;2023-05-02T07:31:51;19.87;;;17.77;;
13279;SDS011;6708;49.814;8.652;2023-05-02T07:34:19;21.37;;;19.13;;
13279;SDS011;6708;49.814;8.652;2023-05-02T07:36:50;20.80;;;18.43;;
13279;SDS011;6708;49.814;8.652;2023-05-02T07:39:19;19.97;;;17.47;;
13279;SDS011;6708;49.814;8.652;2023-05-02T07:41:49;19.60;;;16.80;;
13279;SDS011;6708;49.814;8.652;2023-05-02T07:44:18;21.33;;;16.53;;
13279;SDS011;6708;49.814;8.652;2023-05-02T07:46:46;24.57;;;17.20;;
13279;SDS011;6708;49.814;8.652;2023-05-02T07:49:15;18.43;;;16.07;;
13279;SDS011;6708;49.814;8.652;2023-05-02T07:51:43;17.40;;;15.60;;
13279;SDS011;6708;49.814;8.652;2023-05-02T07:54:17;20.13;;;16.73;;
13279;SDS011;6708;49.814;8.652;2023-05-02T07:56:47;18.80;;;16.13;;
13279;SDS011;6708;49.814;8.652;2023-05-02T07:59:15;17.20;;;15.40;;
13279;SDS011;6708;49.814;8.652;2023-05-02T08:01:44;18.90;;;16.27;;
13279;SDS011;6708;49.814;8.652;2023-05-02T08:04:12;18.33;;;16.03;;
13279;SDS011;6708;49.814;8.652;2023-05-02T08:06:42;17.47;;;15.70;;
13279;SDS011;6708;49.814;8.652;2023-05-02T08:09:11;17.43;;;15.63;;
13279;SDS011;6708;49.814;8.652;2023-05-02T08:11:42;20.30;;;15.10;;
13279;SDS011;6708;49.814;8.652;2023-05-02T08:14:11;21.47;;;15.43;;
13279;SDS011;6708;49.814;8.652;2023-05-02T08:16:40;16.20;;;14.57;;
13279;SDS011;6708;49.814;8.652;2023-05-02T08:19:08;16.10;;;14.40;;
13279;SDS011;6708;49.814;8.652;2023-05-02T08:21:37;15.97;;;13.87;;
13279;SDS011;6708;49.814;8.652;2023-05-02T08:24:05;15.17;;;13.67;;
13279;SDS011;6708;49.814;8.652;2023-05-02T08:26:34;16.90;;;14.70;;
13279;SDS011;6708;49.814;8.652;2023-05-02T08:29:05;15.33;;;13.47;;
13279;SDS011;6708;49.814;8.652;2023-05-02T08:31:35;15.17;;;13.60;;
13279;SDS011;6708;49.814;8.652;2023-05-02T08:34:04;17.40;;;14.07;;
13279;SDS011;6708;49.814;8.652;2023-05-02T08:36:32;15.00;;;13.47;;
13279;SDS011;6708;49.814;8.652;2023-05-02T08:39:01;15.87;;;14.17;;
13279;SDS011;6708;49.814;8.652;2023-05-02T08:41:32;15.83;;;13.10;;
13279;SDS011;6708;49.814;8.652;2023-05-02T08:44:00;14.07;;;12.57;;
13279;SDS011;6708;49.814;8.652;2023-05-02T08:46:34;15.47;;;13.80;;
13279;SDS011;6708;49.814;8.652;2023-05-02T08:49:02;17.97;;;12.90;;
13279;SDS011;6708;49.814;8.652;2023-05-02T08:51:32;14.03;;;12.57;;
13279;SDS011;6708;49.814;8.652;2023-05-02T08:54:02;15.17;;;11.50;;
13279;SDS011;6708;49.814;8.652;2023-05-02T08:56:31;12.80;;;10.77;;
13279;SDS011;6708;49.814;8.652;2023-05-02T08:59:00;12.93;;;11.57;;
13279;SDS011;6708;49.814;8.652;2023-05-02T09:01:29;11.00;;;9.93;;
13279;SDS011;6708;49.814;8.652;2023-05-02T09:04:00;12.53;;;9.67;;
13279;SDS011;6708;49.814;8.652;2023-05-02T09:06:29;12.87;;;9.90;;
13279;SDS011;6708;49.814;8.652;2023-05-02T09:08:59;13.70;;;10.30;;
13279;SDS011;6708;49.814;8.652;2023-05-02T09:11:27;13.40;;;10.73;;
13279;SDS011;6708;49.814;8.652;2023-05-02T09:13:56;12.80;;;10.27;;
13279;SDS011;6708;49.814;8.652;2023-05-02T09:16:28;12.03;;;10.43;;
13279;SDS011;6708;49.814;8.652;2023-05-02T09:18:59;16.03;;;11.17;;
13279;SDS011;6708;49.814;8.652;2023-05-02T09:21:33;13.67;;;11.73;;
13279;SDS011;6708;49.814;8.652;2023-05-02T09:24:13;14.13;;;11.00;;
13279;SDS011;6708;49.814;8.652;2023-05-02T09:26:43;13.23;;;10.20;;
13279;SDS011;6708;49.814;8.652;2023-05-02T09:29:24;15.30;;;10.67;;
13279;SDS011;6708;49.814;8.652;2023-05-02T09:31:54;12.10;;;10.17;;
13279;SDS011;6708;49.814;8.652;2023-05-02T09:34:25;14.87;;;10.80;;
13279;SDS011;6708;49.814;8.652;2023-05-02T09:36:54;12.03;;;10.20;;
13279;SDS011;6708;49.814;8.652;2023-05-02T09:39:23;12.43;;;10.20;;
13279;SDS011;6708;49.814;8.652;2023-05-02T09:41:53;16.00;;;10.43;;
13279;SDS011;6708;49.814;8.652;2023-05-02T09:44:22;13.27;;;10.30;;
13279;SDS011;6708;49.814;8.652;2023-05-02T09:46:51;14.90;;;9.70;;
13279;SDS011;6708;49.814;8.652;2023-05-02T09:52:09;10.27;;;9.27;;
13279;SDS011;6708;49.814;8.652;2023-05-02T09:54:38;11.23;;;8.73;;
13279;SDS011;6708;49.814;8.652;2023-05-02T09:57:06;12.73;;;10.00;;
13279;SDS011;6708;49.814;8.652;2023-05-02T09:59:34;11.47;;;8.73;;
13279;SDS011;6708;49.814;8.652;2023-05-02T10:02:04;12.27;;;9.90;;
13279;SDS011;6708;49.814;8.652;2023-05-02T10:04:35;11.00;;;8.77;;
13279;SDS011;6708;49.814;8.652;2023-05-02T10:07:08;12.10;;;7.83;;
13279;SDS011;6708;49.814;8.652;2023-05-02T10:09:38;12.33;;;8.33;;
13279;SDS011;6708;49.814;8.652;2023-05-02T10:12:12;11.23;;;8.80;;
13279;SDS011;6708;49.814;8.652;2023-05-02T10:14:43;11.20;;;8.33;;
13279;SDS011;6708;49.814;8.652;2023-05-02T10:17:19;12.33;;;7.73;;
13279;SDS011;6708;49.814;8.652;2023-05-02T10:19:55;9.80;;;7.60;;
13279;SDS011;6708;49.814;8.652;2023-05-02T10:22:24;11.03;;;9.40;;
13279;SDS011;6708;49.814;8.652;2023-05-02T10:24:53;10.30;;;8.90;;
13279;SDS011;6708;49.814;8.652;2023-05-02T10:27:22;12.70;;;9.77;;
13279;SDS011;6708;49.814;8.652;2023-05-02T10:29:50;11.57;;;9.00;;
13279;SDS011;6708;49.814;8.652;2023-05-02T10:32:19;11.93;;;9.20;;
13279;SDS011;6708;49.814;8.652;2023-05-02T10:34:48;10.93;;;8.97;;
13279;SDS011;6708;49.814;8.652;2023-05-02T10:37:19;16.77;;;9.50;;
13279;SDS011;6708;49.814;8.652;2023-05-02T10:39:48;11.67;;;9.60;;
13279;SDS011;6708;49.814;8.652;2023-05-02T10:42:17;12.33;;;8.90;;
13279;SDS011;6708;49.814;8.652;2023-05-02T10:44:46;10.43;;;8.60;;
13279;SDS011;6708;49.814;8.652;2023-05-02T10:47:18;12.00;;;9.30;;
13279;SDS011;6708;49.814;8.652;2023-05-02T10:49:50;13.07;;;8.97;;
13279;SDS011;6708;49.814;8.652;2023-05-02T10:52:27;13.60;;;10.13;;
13279;SDS011;6708;49.814;8.652;2023-05-02T10:55:13;14.97;;;10.00;;
13279;SDS011;6708;49.814;8.652;2023-05-02T11:00:48;9.00;;;7.57;;
13279;SDS011;6708;49.814;8.652;2023-05-02T11:06:15;10.60;;;8.13;;
13279;SDS011;6708;49.814;8.652;2023-05-02T11:08:46;9.67;;;7.83;;
13279;SDS011;6708;49.814;8.652;2023-05-02T11:11:37;10.00;;;8.10;;
13279;SDS011;6708;49.814;8.652;2023-05-02T11:14:06;9.27;;;8.27;;
13279;SDS011;6708;49.814;8.652;2023-05-02T11:22:33;8.60;;;7.20;;
13279;SDS011;6708;49.814;8.652;2023-05-02T11:25:04;8.37;;;6.77;;
13279;SDS011;6708;49.814;8.652;2023-05-02T11:27:36;6.77;;;6.20;;
13279;SDS011;6708;49.814;8.652;2023-05-02T11:30:08;10.70;;;7.37;;
13279;SDS011;6708;49.814;8.652;2023-05-02T11:35:41;6.97;;;6.27;;
13279;SDS011;6708;49.814;8.652;2023-05-02T11:38:17;7.40;;;5.87;;
13279;SDS011;6708;49.814;8.652;2023-05-02T11:40:52;9.80;;;5.97;;
13279;SDS011;6708;49.814;8.652;2023-05-02T11:43:22;7.50;;;6.30;;
13279;SDS011;6708;49.814;8.652;2023-05-02T11:45:52;7.10;;;6.13;;
13279;SDS011;6708;49.814;8.652;2023-05-02T11:48:21;5.67;;;5.23;;
13279;SDS011;6708;49.814;8.652;2023-05-02T11:50:52;7.00;;;5.93;;
13279;SDS011;6708;49.814;8.652;2023-05-02T11:53:21;6.17;;;5.43;;
13279;SDS011;6708;49.814;8.652;2023-05-02T11:55:54;6.87;;;5.03;;
13279;SDS011;6708;49.814;8.652;2023-05-02T11:58:24;5.50;;;5.00;;
13279;SDS011;6708;49.814;8.652;2023-05-02T12:00:54;4.93;;;4.53;;
13279;SDS011;6708;49.814;8.652;2023-05-02T12:03:26;5.13;;;4.33;;
13279;SDS011;6708;49.814;8.652;2023-05-02T12:05:56;5.67;;;5.17;;
13279;SDS011;6708;49.814;8.652;2023-05-02T12:08:25;6.13;;;4.40;;
13279;SDS011;6708;49.814;8.652;2023-05-02T12:10:58;4.70;;;4.30;;
13279;SDS011;6708;49.814;8.652;2023-05-02T12:13:26;4.50;;;4.10;;
13279;SDS011;6708;49.814;8.652;2023-05-02T12:15:54;4.73;;;4.37;;
13279;SDS011;6708;49.814;8.652;2023-05-02T12:18:23;4.67;;;4.27;;
13279;SDS011;6708;49.814;8.652;2023-05-02T12:20:52;4.43;;;3.90;;
13279;SDS011;6708;49.814;8.652;2023-05-02T12:23:22;4.60;;;4.13;;
13279;SDS011;6708;49.814;8.652;2023-05-02T12:25:51;4.60;;;4.30;;
13279;SDS011;6708;49.814;8.652;2023-05-02T12:28:22;6.07;;;4.10;;
13279;SDS011;6708;49.814;8.652;2023-05-02T12:30:50;3.87;;;3.67;;
13279;SDS011;6708;49.814;8.652;2023-05-02T12:33:19;3.90;;;3.60;;
13279;SDS011;6708;49.814;8.652;2023-05-02T12:35:47;4.03;;;3.73;;
13279;SDS011;6708;49.814;8.652;2023-05-02T12:38:18;3.83;;;3.60;;
13279;SDS011;6708;49.814;8.652;2023-05-02T12:40:48;4.00;;;3.33;;
13279;SDS011;6708;49.814;8.652;2023-05-02T12:43:18;3.80;;;3.20;;
13279;SDS011;6708;49.814;8.652;2023-05-02T12:45:49;3.27;;;3.07;;
13279;SDS011;6708;49.814;8.652;2023-05-02T12:48:19;3.70;;;3.50;;
13279;SDS011;6708;49.814;8.652;2023-05-02T12:50:48;4.70;;;3.70;;
13279;SDS011;6708;49.814;8.652;2023-05-02T12:53:17;4.53;;;3.43;;
13279;SDS011;6708;49.814;8.652;2023-05-02T12:56:05;3.13;;;2.93;;
13279;SDS011;6708;49.814;8.652;2023-05-02T12:58:44;3.90;;;3.60;;
13279;SDS011;6708;49.814;8.652;2023-05-02T13:01:16;5.03;;;3.27;;
13279;SDS011;6708;49.814;8.652;2023-05-02T13:03:44;3.47;;;3.10;;
13279;SDS011;6708;49.814;8.652;2023-05-02T13:06:13;4.63;;;2.93;;
13279;SDS011;6708;49.814;8.652;2023-05-02T13:08:42;2.93;;;2.67;;
13279;SDS011;6708;49.814;8.652;2023-05-02T13:11:10;2.53;;;2.40;;
13279;SDS011;6708;49.814;8.652;2023-05-02T13:13:38;3.87;;;3.07;;
13279;SDS011;6708;49.814;8.652;2023-05-02T13:16:07;2.53;;;2.30;;
13279;SDS011;6708;49.814;8.652;2023-05-02T13:18:38;2.40;;;1.93;;
13279;SDS011;6708;49.814;8.652;2023-05-02T13:21:06;4.33;;;2.70;;
13279;SDS011;6708;49.814;8.652;2023-05-02T13:23:35;3.10;;;2.90;;
13279;SDS011;6708;49.814;8.652;2023-05-02T13:26:04;4.10;;;3.80;;
13279;SDS011;6708;49.814;8.652;2023-05-02T13:28:32;4.40;;;4.10;;
13279;SDS011;6708;49.814;8.652;2023-05-02T13:31:01;5.67;;;4.23;;
13279;SDS011;6708;49.814;8.652;2023-05-02T13:33:30;4.57;;;4.13;;
13279;SDS011;6708;49.814;8.652;2023-05-02T13:36:01;5.40;;;4.93;;
13279;SDS011;6708;49.814;8.652;2023-05-02T13:38:29;4.07;;;3.67;;
13279;SDS011;6708;49.814;8.652;2023-05-02T13:40:58;8.03;;;4.07;;
13279;SDS011;6708;49.814;8.652;2023-05-02T13:43:27;5.37;;;4.17;;
13279;SDS011;6708;49.814;8.652;2023-05-02T13:45:55;5.07;;;4.40;;
13279;SDS011;6708;49.814;8.652;2023-05-02T13:48:24;4.83;;;4.33;;
13279;SDS011;6708;49.814;8.652;2023-05-02T13:50:52;4.57;;;3.77;;
13279;SDS011;6708;49.814;8.652;2023-05-02T13:53:23;4.40;;;3.97;;
13279;SDS011;6708;49.814;8.652;2023-05-02T13:55:52;3.20;;;2.90;;
13279;SDS011;6708;49.814;8.652;2023-05-02T13:58:20;3.73;;;3.43;;
13279;SDS011;6708;49.814;8.652;2023-05-02T14:00:48;5.50;;;2.93;;
13279;SDS011;6708;49.814;8.652;2023-05-02T14:03:18;2.90;;;2.70;;
13279;SDS011;6708;49.814;8.652;2023-05-02T14:05:46;2.73;;;2.53;;
13279;SDS011;6708;49.814;8.652;2023-05-02T14:08:15;2.97;;;2.70;;
13279;SDS011;6708;49.814;8.652;2023-05-02T14:10:46;2.90;;;2.70;;
13279;SDS011;6708;49.814;8.652;2023-05-02T14:13:14;2.70;;;2.50;;
13279;SDS011;6708;49.814;8.652;2023-05-02T14:15:43;7.00;;;2.67;;
13279;SDS011;6708;49.814;8.652;2023-05-02T14:18:11;1.87;;;1.77;;
13279;SDS011;6708;49.814;8.652;2023-05-02T14:20:40;2.40;;;2.30;;
13279;SDS011;6708;49.814;8.652;2023-05-02T14:23:09;2.13;;;2.03;;
13279;SDS011;6708;49.814;8.652;2023-05-02T14:25:37;3.00;;;1.90;;
13279;SDS011;6708;49.814;8.652;2023-05-02T14:28:08;2.40;;;2.07;;
13279;SDS011;6708;49.814;8.652;2023-05-02T14:30:36;2.20;;;2.10;;
13279;SDS011;6708;49.814;8.652;2023-05-02T14:33:05;2.00;;;1.90;;
13279;SDS011;6708;49.814;8.652;2023-05-02T14:35:33;2.40;;;2.20;;
13279;SDS011;6708;49.814;8.652;2023-05-02T14:38:02;2.67;;;2.47;;
13279;SDS011;6708;49.814;8.652;2023-05-02T14:40:30;2.67;;;2.57;;
13279;SDS011;6708;49.814;8.652;2023-05-02T14:42:58;2.40;;;2.30;;
13279;SDS011;6708;49.814;8.652;2023-05-02T14:45:30;2.60;;;2.50;;
13279;SDS011;6708;49.814;8.652;2023-05-02T14:47:58;2.47;;;2.33;;
13279;SDS011;6708;49.814;8.652;2023-05-02T14:50:27;2.40;;;2.30;;
13279;SDS011;6708;49.814;8.652;2023-05-02T14:52:55;2.40;;;2.20;;
13279;SDS011;6708;49.814;8.652;2023-05-02T14:55:23;3.03;;;2.83;;
13279;SDS011;6708;49.814;8.652;2023-05-02T14:57:52;3.10;;;2.90;;
13279;SDS011;6708;49.814;8.652;2023-05-02T15:00:20;3.97;;;2.67;;
13279;SDS011;6708;49.814;8.652;2023-05-02T15:02:51;2.60;;;2.50;;
13279;SDS011;6708;49.814;8.652;2023-05-02T15:05:20;4.23;;;2.63;;
13279;SDS011;6708;49.814;8.652;2023-05-02T15:07:48;3.43;;;3.13;;
13279;SDS011;6708;49.814;8.652;2023-05-02T15:10:17;3.17;;;3.03;;
13279;SDS011;6708;49.814;8.652;2023-05-02T15:12:45;2.87;;;2.67;;
13279;SDS011;6708;49.814;8.652;2023-05-02T15:15:15;2.40;;;2.20;;
13279;SDS011;6708;49.814;8.652;2023-05-02T15:17:43;3.00;;;2.80;;
13279;SDS011;6708;49.814;8.652;2023-05-02T15:20:14;2.93;;;2.80;;
13279;SDS011;6708;49.814;8.652;2023-05-02T15:22:43;3.10;;;3.00;;
13279;SDS011;6708;49.814;8.652;2023-05-02T15:25:11;3.50;;;3.20;;
13279;SDS011;6708;49.814;8.652;2023-05-02T15:27:40;3.27;;;3.07;;
13279;SDS011;6708;49.814;8.652;2023-05-02T15:30:08;3.83;;;3.53;;
13279;SDS011;6708;49.814;8.652;2023-05-02T15:32:37;3.60;;;3.40;;